Date,TemperatureHighF,TemperatureAvgF,TemperatureLowF,DewpointHighF,DewpointAvgF,DewpointLowF,HumidityHigh,HumidityAvg,HumidityLow,PressureMaxIn,PressureMinIn,WindSpeedMaxMPH,WindSpeedAvgMPH,GustSpeedMaxMPH,PrecipitationSumIn
2013-1-1,33,28,24,32,27,22,96,95,95,30.03,29.92,2,0,2,0.00
2013-1-2,39,34,31,34,31,28,96,87,78,29.93,29.75,3,0,3,0.00
2013-1-3,39,34,28,34,29,25,94,83,67,29.81,29.67,4,0,4,0.22
2013-1-4,39,35,33,37,34,32,96,95,94,29.92,29.75,0,0,1,0.15
2013-1-5,38,35,33,36,34,32,96,96,95,29.80,29.72,0,0,0,0.06
2013-1-6,39,34,31,38,33,30,96,96,96,29.80,29.62,0,0,0,0.34
2013-1-7,37,35,34,36,34,33,97,96,96,29.79,29.52,1,0,1,0.86
2013-1-8,40,37,33,39,36,32,97,97,96,29.78,29.44,5,0,5,0.39
2013-1-9,40,34,31,39,33,30,97,96,96,29.53,29.25,4,0,4,0.18
2013-1-10,31,31,31,30,30,30,96,96,96,29.54,29.52,0,0,0,0.00
2013-1-14,30,28,26,28,26,24,94,93,92,30.11,30.03,0,0,0,0.00
2013-1-15,27,26,26,25,25,24,94,94,94,30.15,30.10,0,0,0,0.00
2013-1-28,33,33,32,32,32,31,96,96,96,29.67,29.64,0,0,0,0.02
2013-1-31,34,34,33,34,33,32,97,97,96,29.92,29.90,0,0,0,0.03
2013-2-1,38,33,31,38,33,30,97,97,96,29.96,29.90,0,0,0,0.00
2013-2-2,42,33,29,41,32,28,97,96,95,29.91,29.79,0,0,0,0.00
2013-2-3,38,32,27,37,31,26,96,96,95,29.87,29.78,0,0,0,0.00
2013-2-4,45,37,31,42,35,30,96,93,83,29.79,29.51,2,0,2,0.00
2013-2-5,41,36,33,39,34,31,96,95,93,29.59,29.48,2,0,2,0.28
2013-2-6,41,36,33,39,34,32,96,95,91,29.68,29.43,0,0,2,0.12
2013-2-7,38,34,32,36,33,31,95,94,90,29.62,29.43,2,0,2,0.10
2013-2-8,37,32,30,34,30,28,93,91,87,29.84,29.81,0,0,0,0.00
2013-2-9,36,33,30,35,31,28,95,94,92,29.90,29.80,0,0,0,0.00
2013-2-10,38,34,32,35,32,30,95,92,87,29.93,29.87,1,0,1,0.00
2013-2-11,41,36,32,38,34,31,95,92,83,29.94,29.88,2,0,2,0.07
2013-2-12,42,37,34,41,36,32,96,96,95,30.01,29.93,0,0,0,0.07
2013-2-13,36,36,36,35,35,35,96,96,96,29.98,29.95,0,0,0,0.00
2013-2-14,42,38,32,41,37,30,96,95,94,30.14,30.11,0,0,0,0.00
2013-2-15,47,36,30,46,35,29,96,95,92,30.11,29.78,0,0,0,0.00
2013-2-16,42,36,32,40,35,30,96,96,95,29.81,29.75,2,0,2,0.22
2013-2-17,40,35,31,37,33,29,96,93,82,29.82,29.68,0,0,0,0.00
2013-2-18,40,34,29,35,31,28,94,90,80,29.68,29.34,0,0,2,0.00
2013-2-19,43,35,29,36,31,27,93,86,73,29.58,29.30,2,0,2,0.00
2013-2-20,30,30,30,28,28,28,92,91,91,29.59,29.58,0,0,0,0.00
2013-2-25,32,32,32,31,31,31,95,95,95,29.90,29.89,0,0,0,0.00
2013-2-26,39,34,31,37,33,30,96,94,90,29.94,29.80,2,0,2,0.20
2013-2-27,44,37,33,42,36,31,96,94,88,29.88,29.82,0,0,0,0.14
2013-2-28,42,39,36,41,38,35,97,96,95,30.00,29.79,0,0,1,0.96
2013-3-1,49,42,39,48,42,38,97,97,96,30.03,29.91,0,0,1,0.08
2013-3-2,47,40,36,46,39,36,97,97,96,29.92,29.75,0,0,0,0.00
2013-3-6,34,33,33,32,31,31,94,93,92,29.51,29.38,0,0,0,0.12
2013-3-7,46,37,30,42,34,28,95,91,79,29.66,29.51,0,0,1,0.09
2013-3-8,47,36,28,41,32,26,95,86,66,29.82,29.64,0,0,0,0.00
2013-3-9,50,36,28,41,31,25,94,82,54,30.08,29.81,0,0,1,0.00
2013-3-10,42,37,29,40,34,27,94,92,90,30.08,29.98,0,0,0,0.12
2013-3-11,48,42,38,45,40,36,95,92,83,30.00,29.82,0,0,0,0.12
2013-3-12,48,43,40,46,42,38,95,95,94,29.82,29.74,0,0,0,0.49
2013-3-13,52,45,41,50,44,39,96,95,94,29.81,29.70,0,0,0,0.12
2013-3-14,44,44,43,43,42,42,96,95,95,29.71,29.68,1,0,2,0.00
2013-3-15,51,46,42,46,43,40,93,90,82,29.78,29.74,0,0,1,0.11
2013-3-16,43,40,33,41,38,31,95,93,92,29.75,29.51,3,0,3,0.36
2013-3-17,38,34,32,36,32,31,94,93,90,29.82,29.58,0,0,0,0.21
2013-3-18,42,35,30,39,33,28,95,93,89,29.82,29.77,0,0,0,0.30
2013-3-19,44,36,30,37,33,29,94,87,68,29.79,29.27,2,0,4,0.51
2013-3-20,43,39,32,42,38,31,95,94,92,29.65,29.08,2,0,22,0.87
2013-3-21,39,33,31,36,31,30,94,92,88,29.80,29.64,2,0,2,0.25
2013-3-22,45,33,30,38,30,27,94,90,76,29.91,29.79,0,0,0,0.26
2013-3-23,42,33,28,35,29,26,93,88,73,29.92,29.83,0,0,0,0.04
2013-3-24,44,35,27,36,30,25,93,83,67,29.86,29.71,2,0,2,0.00
2013-3-25,56,42,31,42,34,28,90,76,52,29.73,29.53,1,0,2,0.00
2013-3-26,39,39,39,35,35,35,86,86,86,29.57,29.57,0,0,0,0.00
2013-4-12,38,38,38,36,36,36,91,91,91,29.38,29.38,0,0,0,0.00
2013-4-15,46,39,32,40,35,30,93,87,75,29.76,29.60,2,0,2,0.12
2013-4-16,51,37,29,43,34,27,94,89,71,30.00,29.76,3,0,3,0.08
2013-4-17,56,40,30,44,35,28,94,85,60,30.05,29.99,0,0,2,0.02
2013-4-18,50,42,36,44,39,34,93,89,79,30.04,29.86,1,0,3,0.43
2013-4-19,49,44,41,47,42,39,94,93,92,29.87,29.71,0,0,1,1.26
2013-4-20,50,44,41,47,42,39,95,93,88,29.89,29.81,2,0,2,0.12
2013-4-21,51,43,35,45,40,33,94,90,77,29.92,29.80,3,0,4,0.15
2013-4-22,60,44,32,44,36,30,94,76,42,30.05,29.92,4,0,4,0.02
2013-4-23,57,43,30,42,34,28,92,73,43,30.01,29.79,4,0,5,0.00
2013-4-24,69,48,31,44,36,28,90,66,37,29.92,29.67,4,0,4,0.00
2013-4-25,71,51,34,46,39,30,89,67,40,29.77,29.64,2,0,3,0.00
2013-4-26,76,53,0,49,38,-16,90,62,32,29.85,29.77,5,0,5,0.00
2013-4-27,58,46,0,44,39,-2,90,76,49,29.87,29.79,0,0,0,0.20
2013-4-28,54,48,0,49,43,-2,92,85,41,29.82,29.61,0,0,0,0.19
2013-4-29,42,41,38,40,38,36,92,91,88,29.66,29.57,0,0,0,0.22
2013-5-1,45,43,42,36,36,35,75,74,72,30.13,30.12,0,0,0,0.00
2013-5-2,77,54,36,47,40,32,86,62,32,30.12,29.92,3,0,3,0.00
2013-5-3,72,53,35,50,41,31,89,67,42,29.97,29.80,4,0,4,0.00
2013-5-4,78,57,37,47,40,33,90,60,27,29.84,29.61,5,0,5,0.00
2013-5-5,82,59,39,48,39,35,89,56,22,29.62,29.41,4,0,4,0.00
2013-5-6,87,62,41,54,44,36,85,57,26,29.50,29.39,6,0,6,0.00
2013-5-7,79,59,42,56,47,38,87,68,44,29.61,29.47,2,0,2,0.00
2013-5-8,73,54,45,57,48,41,90,79,54,29.71,29.61,4,0,4,0.00
2013-5-11,86,73,58,60,58,52,82,60,39,29.69,29.63,0,0,0,0.00
2013-5-12,64,57,53,59,54,50,91,87,81,29.72,29.65,0,0,0,0.10
2013-5-13,64,52,38,55,48,36,92,88,66,29.80,29.59,3,0,3,0.37
2013-5-14,38,38,38,36,35,35,90,90,90,29.80,29.79,0,0,0,0.00
2013-5-16,71,54,45,54,48,30,92,80,43,29.63,29.48,1,0,3,0.63
2013-5-18,52,52,52,48,48,48,85,85,85,29.79,29.78,0,0,0,0.00
2013-5-19,53,49,47,49,46,45,93,91,84,29.98,29.87,0,0,0,0.00
2013-5-20,71,63,52,56,52,47,84,69,56,29.75,29.50,3,0,3,0.00
2013-5-21,51,49,46,47,44,42,86,85,83,29.51,29.43,0,0,0,0.00
2013-5-22,44,42,38,42,39,35,91,89,88,29.52,29.50,0,0,0,0.22
2013-5-23,39,39,39,37,37,37,92,92,92,29.54,29.54,0,0,0,0.00
2013-5-26,64,60,57,56,52,50,83,73,62,29.58,29.56,1,0,2,0.02
2013-5-29,0,0,0,0,0,0,93,93,93,29.33,29.33,0,0,0,0.00
2013-5-31,64,61,55,50,49,47,79,66,59,29.92,29.87,2,0,2,0.53
2013-6-1,74,64,50,54,50,46,85,64,46,29.75,29.64,3,0,3,0.00
2013-6-2,66,54,45,53,47,42,91,78,58,29.70,29.64,2,0,2,0.00
2013-6-3,75,55,40,57,47,38,93,76,52,29.71,29.65,3,0,3,0.00
2013-6-4,82,53,42,60,46,39,92,80,45,29.74,29.67,1,0,4,0.00
2013-6-5,82,70,55,61,55,50,90,62,42,29.70,29.63,2,0,2,0.00
2013-6-6,82,62,47,63,52,44,92,73,48,29.67,29.61,2,0,22,0.00
2013-6-7,71,57,47,56,50,44,90,78,56,29.72,29.65,2,0,2,0.00
2013-6-18,51,51,50,48,47,47,89,88,87,29.56,29.55,0,0,0,0.00
2013-6-19,57,51,48,52,47,46,91,88,79,29.58,29.54,0,0,0,0.06
2013-7-2,91,78,61,74,65,57,86,66,52,29.71,29.65,2,0,22,0.00
2013-7-3,84,66,53,66,56,50,92,73,47,29.75,29.64,3,0,3,0.00
2013-7-4,67,57,48,55,51,44,89,79,66,29.72,29.63,1,0,1,0.00
2013-7-5,64,57,52,55,52,48,89,82,73,29.64,29.57,0,0,0,0.00
2013-7-6,77,62,50,61,54,47,92,77,56,29.60,29.49,2,0,3,0.00
2013-7-7,80,63,48,64,54,46,92,75,52,29.57,29.51,3,0,3,0.00
2013-7-14,85,62,44,61,50,41,91,67,38,29.75,29.61,1,0,3,0.00
2013-7-15,84,63,44,59,51,40,90,69,41,29.66,29.51,2,0,2,0.00
2013-7-16,86,64,47,66,56,43,91,78,48,29.56,29.45,0,0,2,0.00
2013-7-17,68,61,57,61,57,55,93,87,77,29.79,29.55,0,0,2,0.10
2013-7-18,81,63,47,63,55,44,92,76,53,29.82,29.72,1,0,2,0.00
2013-7-19,84,65,50,65,56,47,91,75,52,29.76,29.65,2,0,3,0.00
2013-7-20,84,67,0,65,57,-8,90,73,50,29.68,29.58,3,0,4,0.00
2013-7-21,84,67,56,65,58,52,89,74,50,29.59,29.52,3,0,3,0.00
2013-7-22,81,70,56,64,59,52,87,70,55,29.65,29.55,2,0,2,0.00
2013-7-23,56,53,51,52,50,48,89,88,86,29.66,29.65,0,0,0,0.00
2013-7-24,71,65,59,58,55,52,79,71,62,29.66,29.63,0,0,0,0.00
2013-7-25,84,58,49,63,51,46,92,81,46,29.71,29.65,1,0,1,0.00
2013-7-26,87,65,47,62,53,44,91,69,39,29.77,29.69,25,0,25,0.00
2013-7-27,82,62,46,59,50,43,90,69,42,29.75,29.61,1,0,2,0.00
2013-7-28,79,61,47,60,51,43,90,73,49,29.62,29.56,2,0,2,0.00
2013-7-29,78,62,54,60,53,49,86,74,53,29.63,29.56,3,0,3,0.00
2013-7-30,82,63,48,63,54,46,91,75,50,29.73,29.63,2,0,2,0.00
2013-7-31,76,62,52,64,56,48,90,80,64,29.73,29.62,0,0,1,0.00
2013-8-1,60,58,55,56,54,52,90,88,81,29.69,29.62,0,0,0,0.00
2013-8-2,66,56,54,56,53,51,92,88,70,29.73,29.68,0,0,0,0.02
2013-8-3,70,58,55,60,54,52,91,87,72,29.73,29.70,0,0,0,0.00
2013-8-4,58,49,0,54,43,-17,90,80,44,29.67,29.64,0,0,0,0.00
2013-8-5,61,58,56,54,53,52,90,85,78,29.61,29.59,0,0,0,0.00
2013-8-6,78,57,0,61,51,-6,91,81,48,29.62,29.56,0,0,0,0.00
2013-8-7,86,62,49,62,53,46,91,74,44,29.63,29.56,0,0,0,0.00
2013-8-8,71,55,50,61,50,46,90,85,71,29.64,29.62,0,0,0,0.00
2013-8-10,81,80,79,69,68,68,70,68,67,29.59,29.59,0,0,0,0.00
2013-8-17,78,69,57,62,58,53,86,69,52,29.70,29.64,4,0,4,0.00
2013-8-18,82,65,55,63,56,51,91,75,47,29.73,29.67,3,0,3,0.00
2013-8-19,83,64,50,62,54,48,91,74,48,29.72,29.65,3,0,3,0.00
2013-8-20,79,62,53,60,53,48,89,74,48,29.75,29.65,2,0,2,0.00
2013-8-21,82,62,45,62,53,42,92,76,49,29.70,29.56,2,0,2,0.00
2013-8-22,84,64,49,66,57,46,91,79,45,29.58,29.47,0,0,0,0.00
2013-8-23,76,64,57,64,57,52,92,80,61,29.52,29.48,4,0,4,0.02
2013-8-24,73,61,54,61,55,50,90,81,62,29.55,29.49,1,0,22,0.02
2013-8-25,71,57,47,58,53,45,92,86,63,29.56,29.51,0,0,0,0.06
2013-8-26,73,60,52,62,55,50,93,83,57,29.60,29.49,0,0,0,0.04
2013-8-27,75,63,55,66,59,52,93,87,70,29.59,29.44,0,0,0,0.08
2013-8-28,61,60,59,58,58,57,92,92,91,29.49,29.46,0,0,0,0.11
2013-8-29,69,63,59,65,61,57,94,91,88,29.68,29.54,2,0,2,0.24
2013-8-30,74,62,53,64,58,51,94,86,69,29.77,29.67,0,0,22,0.02
2013-8-31,81,62,48,66,56,46,95,83,57,29.70,29.49,0,0,2,0.00
2013-9-1,81,64,52,67,58,49,93,81,58,29.53,29.43,0,0,0,0.00
2013-9-2,80,64,53,64,57,51,93,81,56,29.57,29.49,0,0,0,0.00
2013-9-3,70,61,58,64,58,55,92,89,80,29.65,29.55,0,0,0,0.12
2013-9-4,74,62,55,65,58,53,93,87,72,29.66,29.61,0,0,0,0.00
2013-9-5,64,59,56,59,56,54,94,91,86,29.65,29.54,0,0,0,1.37
2013-9-6,60,57,54,58,55,52,94,93,92,29.74,29.59,0,0,0,1.35
2013-9-7,72,60,50,65,57,48,95,89,77,29.74,29.62,0,0,22,0.00
2013-9-8,77,63,54,64,58,52,93,85,64,29.72,29.64,0,0,0,0.00
2013-9-9,78,61,50,66,56,47,95,85,64,29.67,29.59,0,0,0,0.00
2013-9-10,81,64,52,68,59,50,94,84,61,29.61,29.51,0,0,0,0.00
2013-9-11,88,68,55,71,59,52,95,78,40,29.59,29.53,0,0,0,0.00
2013-9-12,85,65,53,68,58,50,93,79,54,29.62,29.53,0,0,0,0.00
2013-9-13,78,63,53,66,57,50,92,84,64,29.58,29.49,0,0,0,0.00
2013-9-14,78,64,54,66,59,52,92,84,65,29.49,29.36,0,0,0,0.00
2013-9-15,69,60,54,63,57,52,93,90,80,29.47,29.34,0,0,0,0.07
2013-9-16,61,57,55,58,55,53,93,92,89,29.57,29.46,0,0,0,0.21
2013-9-17,59,54,51,53,51,49,94,90,80,29.56,29.46,0,0,0,0.31
2013-9-18,63,53,45,55,49,42,93,86,68,29.69,29.56,0,0,0,0.02
2013-9-19,73,55,41,57,47,39,93,78,46,29.66,29.41,0,0,0,0.00
2013-9-20,69,56,43,58,50,41,92,82,59,29.43,29.25,0,0,0,0.02
2013-9-21,64,56,52,57,52,49,92,88,68,29.36,29.29,0,0,0,0.14
2013-9-22,53,50,0,50,48,-2,94,92,90,29.42,29.25,0,0,0,0.75
2013-9-23,53,50,47,51,48,45,94,93,92,29.60,29.42,0,0,0,0.31
2013-9-24,55,47,40,51,45,38,94,90,78,29.58,29.45,0,0,0,0.18
2013-9-25,52,47,42,49,44,40,94,91,88,29.63,29.44,0,0,0,0.08
2013-9-26,55,45,37,50,42,35,94,89,81,29.77,29.63,0,0,22,0.00
2013-9-27,49,45,40,47,44,37,94,94,92,29.76,29.50,0,0,0,0.31
2013-9-28,54,50,46,53,49,45,96,95,94,29.50,29.05,0,0,0,2.25
2013-9-29,47,46,44,45,44,43,95,95,94,29.26,28.91,0,0,0,0.02
2013-9-30,46,46,45,45,44,44,95,95,95,29.46,29.34,0,0,0,0.03
2013-10-4,56,49,41,50,45,39,92,86,68,30.00,29.97,0,0,0,0.00
2013-10-5,61,48,38,53,44,36,95,88,64,29.98,29.76,0,0,0,0.00
2013-10-6,65,50,41,57,44,39,94,83,47,29.77,29.56,0,0,0,0.00
2013-10-7,50,47,44,47,44,41,93,92,87,29.67,29.54,0,0,0,0.39
2013-10-8,47,43,36,45,41,35,94,93,91,29.68,29.54,0,0,0,0.33
2013-10-9,51,40,31,48,38,30,95,92,86,29.73,29.56,0,0,0,0.00
2013-10-10,40,38,37,38,36,35,93,93,93,29.58,29.56,0,0,0,0.00
2013-10-14,53,46,38,47,42,36,93,87,78,29.98,29.94,0,0,0,0.00
2013-10-15,55,43,34,48,39,32,95,88,62,29.98,29.77,0,0,0,0.00
2013-10-16,54,43,34,49,40,32,94,90,80,29.79,29.73,0,0,22,0.00
2013-10-17,56,44,35,50,41,33,95,90,80,29.85,29.79,0,0,0,0.00
2013-10-18,58,45,37,50,42,35,95,89,71,29.84,29.75,0,0,0,0.00
2013-10-19,57,44,36,50,42,34,95,89,75,29.77,29.72,0,0,0,0.00
2013-10-20,59,45,35,52,42,34,95,90,74,29.78,29.72,0,0,0,0.00
2013-10-21,62,48,39,55,45,37,95,90,75,29.75,29.69,0,0,0,0.00
2013-10-22,64,50,42,55,46,40,94,87,67,29.71,29.63,0,0,0,0.00
2013-10-23,63,49,41,54,45,39,93,86,64,29.65,29.58,0,0,0,0.00
2013-10-24,62,48,40,52,44,38,93,86,66,29.71,29.61,0,0,0,0.00
2013-10-25,50,43,36,48,41,34,93,92,89,29.87,29.71,0,0,0,0.00
2013-10-26,50,43,37,46,40,34,93,91,85,29.90,29.77,0,0,0,0.00
2013-10-27,43,41,40,42,39,38,94,94,93,29.77,29.47,0,0,0,0.21
2013-11-22,30,30,30,30,30,30,99,99,99,29.97,29.97,0,0,0,0.00
2013-11-23,42,34,29,42,34,29,99,99,99,29.96,29.75,0,0,2,0.00
2013-11-24,40,32,29,40,31,29,99,99,99,29.75,29.71,0,0,0,0.00
2013-11-27,48,39,32,48,39,32,99,99,97,29.63,29.56,0,0,0,0.00
2013-11-28,42,33,30,41,33,29,99,99,99,29.79,29.62,0,0,0,0.00
2013-11-29,44,36,29,44,36,29,99,99,99,29.91,29.78,0,0,0,0.00
2013-11-30,44,41,38,44,41,38,99,99,99,29.93,29.75,0,0,0,0.39
2013-12-1,46,45,42,46,44,41,99,99,99,29.75,29.46,0,0,1,2.33
2013-12-2,31,31,30,31,31,30,99,99,99,29.58,29.56,0,0,0,0.00
2013-12-3,32,30,26,32,30,25,99,99,99,29.83,29.58,0,0,0,0.00
2013-12-4,26,23,19,26,22,19,99,99,99,29.86,29.81,0,0,0,0.00
2013-12-5,28,22,17,28,22,17,99,99,99,29.83,29.69,0,0,0,0.00
2013-12-6,22,19,17,20,17,12,99,91,79,29.69,29.58,3,0,5,0.00
2013-12-7,18,13,9,18,12,9,99,96,77,29.93,29.65,0,0,1,0.00
2013-12-8,20,14,8,19,13,8,99,99,99,30.09,29.92,0,0,0,0.00
2013-12-9,28,21,11,28,21,11,99,99,99,30.09,29.99,0,0,0,0.00
2013-12-10,35,31,28,34,30,27,99,99,99,30.00,29.92,0,0,0,0.04
2013-12-11,34,29,25,34,29,25,99,99,99,29.93,29.73,0,0,0,0.02
2013-12-12,31,31,30,31,30,30,99,99,99,29.73,29.71,0,0,0,0.00